South Reno (Wolf Run), Nevada Weather observations

Data are for observation ending at time listed.
 Day   Time    Ave.   Ave.  Ave.  Vector   Max.   Stn.    Total    Solar   Ave.  
  of    of     Air    Rel.  Wind   Wind    Wind   Baro.  Precip.   Rad.    Soil  
Year   Day     Temp.  Hum.  Speed  Dir.    Gust   Pres.                    Temp. 
2019   (PST)    F      %     mph   deg.    mph     mb.     in.     W/m2     F   
------------------------------------------------------------------------------
  15    0:00   30.3    83    1.2   241      4.9  99999.0    0.00       0    35.0
  15    0:10   30.5    84    3.1   232      5.4  99999.0    0.00       0    35.0
  15    0:20   31.1    82    3.7   229      6.5  99999.0    0.00       0    35.0
  15    0:30   31.2    81    6.0   240      8.6  99999.0    0.00       0    35.0
  15    0:40   31.1    81    5.8   240      8.5  99999.0    0.00       0    35.0
  15    0:50   31.2    80    5.1   235      7.4  99999.0    0.00       0    35.0
  15    1:00   31.2    80    3.4   233      6.8  99999.0    0.00       0    35.0
  15    1:10   31.0    79    3.2   228      5.7  99999.0    0.00       0    35.0
  15    1:20   30.7    78    2.5   228      6.1  99999.0    0.00       0    35.0
  15    1:30   30.7    78    0.3   296      1.8  99999.0    0.00       0    35.0
  15    1:40   30.5    76    4.5   248      7.6  99999.0    0.00       0    35.0
  15    1:50   30.4    76    1.4   245      5.6  99999.0    0.00       0    35.0
  15    2:00   31.0    75    0.5   228      1.7  99999.0    0.00       0    35.0
  15    2:10   30.1    75    1.0   236      2.0  99999.0    0.00       0    35.0
  15    2:20   29.8    76    0.4   273      1.3  99999.0    0.00       0    35.0
  15    2:30   28.8    78    2.3   263      5.9  99999.0    0.00       0    35.0
  15    2:40   29.5    78    5.9   248      8.8  99999.0    0.00       0    35.0
  15    2:50   30.5    75    4.8   244      6.9  99999.0    0.00       0    35.0
  15    3:00   31.0    74    4.6   245      8.2  99999.0    0.00       0    35.0
  15    3:10   31.2    72    3.1   251      7.5  99999.0    0.00       0    35.0
  15    3:20   31.2    72    2.9   244      8.8  99999.0    0.00       0    35.0
  15    3:30   31.7    70    6.6   243      9.0  99999.0    0.00       0    35.0
  15    3:40   31.4    70    6.8   246      9.1  99999.0    0.00       0    35.0
  15    3:50   31.1    71    6.6   242      8.8  99999.0    0.00       0    35.0
  15    4:00   30.3    73    3.6   227      5.6  99999.0    0.00       0    35.0
  15    4:10   30.3    73    2.7   225      5.0  99999.0    0.00       0    35.0
  15    4:20   30.0    74    1.2   246      3.7  99999.0    0.00       0    35.0
  15    4:30   29.7    74    0.2   247      1.5  99999.0    0.00       0    35.0
  15    4:40   29.1    75    1.7   230      3.8  99999.0    0.00       0    35.0
  15    4:50   28.4    77    2.5   234      6.7  99999.0    0.00       0    35.0
  15    5:00   28.7    76    3.2   228      8.3  99999.0    0.00       0    35.0
  15    5:10   28.5    76    3.1   212      7.2  99999.0    0.00       0    35.0
  15    5:20   28.3    76    2.7   236      6.2  99999.0    0.00       0    35.0
  15    5:30   28.1    77    1.9   224      4.7  99999.0    0.00       0    35.0
  15    5:40   27.4    79    1.3   226      2.9  99999.0    0.00       0    35.0
  15    5:50   26.6    80    2.4   233      5.0  99999.0    0.00       0    35.0
  15    6:00   25.6    82    3.3   238      5.2  99999.0    0.00       0    35.0
  15    6:10   27.0    80    1.6   257      5.1  99999.0    0.00       0    35.0
  15    6:20   27.1    79    2.1   256      5.0  99999.0    0.00       0    35.0
  15    6:30   28.2    78    5.2   251      8.8  99999.0    0.00       0    35.0
  15    6:40   28.5    77    5.2   253      7.8  99999.0    0.00       0    35.0
  15    6:50   27.9    78    2.8   245      5.9  99999.0    0.00       0    35.0
  15    7:00   27.4    80    1.1   242      2.5  99999.0    0.00       0    35.0
  15    7:10   27.0    80    0.4   237      2.0  99999.0    0.00       0    35.0
  15    7:20   27.0    81    0.7   299      1.7  99999.0    0.00       2    35.0
  15    7:30   28.2    80    1.1    26      2.2  99999.0    0.00       4    35.0
  15    7:40   28.2    79    1.2    24      2.9  99999.0    0.00       9    35.0
  15    7:50   28.1    80    0.7   343      1.9  99999.0    0.00      18    35.0
  15    8:00   28.9    79    0.4   287      1.9  99999.0    0.00      22    35.0
  15    8:10   29.5    79    1.5   350      2.9  99999.0    0.00      32    35.0
  15    8:20   29.8    79    1.1    10      1.8  99999.0    0.00      46    35.0
  15    8:30   30.5    79    1.3   255      4.5  99999.0    0.00      58    35.0
  15    8:40   31.0    78    0.5   209      1.9  99999.0    0.00      74    35.0
  15    8:50   32.2    76    0.1    54      1.5  99999.0    0.00      83    35.0
  15    9:00   33.0    74    0.3    37      1.9  99999.0    0.00     110    35.0
  15    9:10   32.1    75    1.8    37      2.6  99999.0    0.00      70    35.0
  15    9:20   31.4    77    1.0    12      2.4  99999.0    0.00      96    35.0
  15    9:30   31.6    77    0.8    23      2.4  99999.0    0.00     112    35.0
  15    9:40   32.5    76    2.2   195      5.5  99999.0    0.00     117    35.0
  15    9:50   34.1    72    3.8   197      8.3  99999.0    0.00     103    35.0
  15   10:00   33.9    73    5.8   236      8.2  99999.0    0.00     108    35.0
  15   10:10   33.9    74    3.7   224      8.0  99999.0    0.00     132    35.0
  15   10:20   33.8    76    4.8   192      7.5  99999.0    0.00     119    35.0
  15   10:30   33.4    78    3.8   195      5.7  99999.0    0.00     125    35.0
  15   10:40   33.5    79    2.9   178      5.1  99999.0    0.00     163    35.0
  15   10:50   33.7    80    3.0   188      6.3  99999.0    0.00     206    35.0
  15   11:00   34.1    79    3.3   185      5.6  99999.0    0.00     194    35.0
  15   11:10   34.1    78    3.5   202      5.8  99999.0    0.00     178    35.0
  15   11:20   33.8    79    4.3   211      7.5  99999.0    0.00     170    35.0
  15   11:30   33.5    80    4.2   217      7.4  99999.0    0.00     179    35.0
  15   11:40   33.8    80    4.7   227      7.5  99999.0    0.00     225    35.0
  15   11:50   34.4    78    3.4   213      6.1  99999.0    0.00     208    35.0
  15   12:00   35.1    76    2.4   172      4.0  99999.0    0.00     182    35.0
  15   12:10   35.3    75    2.4   158      4.7  99999.0    0.00     147    35.0
  15   12:20   35.0    76    2.7   155      5.3  99999.0    0.00     117    35.0
  15   12:30   35.1    76    2.0   151      4.2  99999.0    0.00     139    35.0
  15   12:40   35.4    75    2.2   152      5.1  99999.0    0.00     135    35.0
  15   12:50   35.2    75    2.1   179      4.4  99999.0    0.00     121    35.0
  15   13:00   34.8    77    3.3   199      5.6  99999.0    0.00     151    35.0
  15   13:10   35.0    76    4.0   206      6.9  99999.0    0.00     157    35.0
  15   13:20   35.0    76    4.0   204      6.4  99999.0    0.00     138    35.0
  15   13:30   34.9    76    4.3   209      7.0  99999.0    0.00     123    35.0
  15   13:40   34.9    77    3.5   203      5.2  99999.0    0.00     123    35.0
  15   13:50   34.9    78    3.4   189      5.2  99999.0    0.00     128    35.0
  15   14:00   34.5    79    3.1   194      5.5  99999.0    0.00      93    35.0
  15   14:10   33.7    83    3.5   194      5.9  99999.0    0.00      97    35.0
  15   14:20   33.4    84    3.4   198      5.5  99999.0    0.00      76    35.0
  15   14:30   33.3    86    2.2   190      3.4  99999.0    0.00      67    35.0
  15   14:40   33.2    86    2.4   200      4.6  99999.0    0.00      65    35.0
  15   14:50   33.2    85    2.5   193      4.5  99999.0    0.00      54    35.0
  15   15:00   33.0    86    2.2   183      3.7  99999.0    0.01      49    35.0
  15   15:10   32.8    87    2.3   196      3.6  99999.0    0.00      34    34.9
  15   15:20   32.5    88    2.8   203      4.4  99999.0    0.00      26    34.9
  15   15:30   32.5    89    2.7   212      4.8  99999.0    0.00      25    34.9
  15   15:40   32.3    90    3.5   215      5.9  99999.0    0.00      21    34.9
  15   15:50   32.3    91    3.0   215      4.6  99999.0    0.00      19    34.9
  15   16:00   32.4    91    2.6   215      4.1  99999.0    0.00      14    34.9
  15   16:10   32.4    92    2.8   211      5.2  99999.0    0.00       8    34.9
  15   16:20   32.4    92    3.2   223      6.1  99999.0    0.00       7    34.9
  15   16:30   32.2    92    4.8   236      8.1  99999.0    0.00       5    34.9
  15   16:40   32.1    92    6.0   239      9.3  99999.0    0.00       3    34.9
  15   16:50   32.0    92    6.0   240      8.5  99999.0    0.00       3    34.9
  15   17:00   31.9    93    5.6   240      8.3  99999.0    0.00       2    34.9
  15   17:10   31.9    93    5.0   240      8.4  99999.0    0.00       1    34.9
  15   17:20   32.1    93    5.1   239      6.9  99999.0    0.00       1    34.9
  15   17:30   32.2    93    5.3   238      8.1  99999.0    0.00       1    34.9
  15   17:40   32.3    93    4.7   236      7.6  99999.0    0.00       1    34.9
  15   17:50   32.4    93    5.1   236      7.7  99999.0    0.00       1    34.9
  15   18:00   32.5    93    3.1   230      6.1  99999.0    0.00       1    34.9
  15   18:10   32.5    93    2.4   221      5.0  99999.0    0.00       1    34.9
  15   18:20   32.6    93    2.5   228      5.5  99999.0    0.00       1    34.9
  15   18:30   32.7    93    0.8   214      2.6  99999.0    0.00       1    34.9
  15   18:40   32.7    93    2.2   211      4.0  99999.0    0.00       1    34.9
  15   18:50   32.5    93    0.0     0      0.0  99999.0    0.00       1    34.9
  15   19:00   32.3    93    0.0   148      1.2  99999.0    0.00       1    34.9

Return to South Reno, Nevada graphs page.


Western Regional Climate Center,wrcc@dri.edu